root/branches/0.4-bugfix


Mode:

Legend:

Added
Modified
Copied or renamed
Rev Chgset Date Author Log Message
(edit) @1590 [1590] 02/28/06 15:24:17 demian pear upgrades
(edit) @1589 [1589] 02/28/06 15:21:39 demian email addressee prob, fixes #574
(edit) @1533 [1533] 02/24/06 18:10:49 demian installer cleanup, fixes #561
(edit) @1383 [1383] 02/14/06 05:12:59 demian pear upgrades
(edit) @1352 [1352] 02/09/06 10:18:21 demian jay's updates
(edit) @1289 [1289] 02/03/06 07:08:34 demian pear upgrades
(edit) @991 [991] 12/31/05 21:19:09 demian pear updates
(edit) @736 [736] 11/11/05 12:00:07 demian upped version no to 0.4.8
(edit) @734 [734] 11/11/05 11:57:50 demian release.sh cleanup
(edit) @733 [733] 11/11/05 11:15:44 demian updated release.sh
(edit) @725 [725] 11/11/05 09:11:24 demian Fix for &-related prob in thunderbird parsing of RSS
(edit) @705 [705] 11/09/05 04:15:05 demian pear upgrades including security fixes
(edit) @704 [704] 11/09/05 03:23:10 demian Removed unnecessary framebuster from login page - bugfix
(edit) @640 [640] 10/26/05 06:09:18 demian removed extra :
(edit) @639 [639] 10/26/05 05:47:44 demian fixed _SGL index
(edit) @638 [638] 10/26/05 05:37:58 demian Trailing slash on url got chopped in redirects, reinstated
(edit) @637 [637] 10/26/05 05:24:21 demian Separate email confirmation sent to site admin on registration of a new …
(edit) @623 [623] 10/24/05 10:16:20 demian Added hook for custom events on registration and password change
(edit) @575 [575] 10/18/05 11:02:58 demian Fixed file upload javascript error and improved feedback messages
(edit) @554 [554] 10/14/05 06:12:58 demian added 'hide' class
(edit) @465 [465] 09/26/05 05:40:19 demian marked onlineUsers alpha
(edit) @464 [464] 09/26/05 05:10:34 demian Added optimize/analyse tables to maintenance module
(edit) @463 [463] 09/26/05 04:47:59 demian fixing windows EOL
(edit) @462 [462] 09/24/05 18:48:30 demian rss another attempt - 7
(edit) @461 [461] 09/24/05 18:32:15 demian rss another attempt - 6
(edit) @460 [460] 09/24/05 18:19:33 demian rss another attempt - 5
(edit) @459 [459] 09/24/05 18:08:18 demian rss another attempt - 4
(edit) @458 [458] 09/24/05 17:53:58 demian rss another attempt - 3
(edit) @457 [457] 09/24/05 17:20:45 demian rss another attempt - 2
(edit) @456 [456] 09/24/05 17:07:47 demian rss another attempt - 1
(edit) @455 [455] 09/24/05 16:44:46 demian rss another attempt
(edit) @454 [454] 09/24/05 16:17:53 demian another attempt at rss headers
(edit) @453 [453] 09/24/05 15:52:47 demian pear upgrades
(edit) @450 [450] 09/24/05 03:58:58 demian fixed copyright
(edit) @447 [447] 09/23/05 10:56:28 demian datefix for rss - 5
(edit) @446 [446] 09/23/05 10:37:07 demian datefix for rss - 4
(edit) @445 [445] 09/23/05 10:27:57 demian datefix for rss - 3
(edit) @444 [444] 09/23/05 10:24:42 demian datefix for rss - 2
(edit) @443 [443] 09/23/05 10:13:22 demian datefix for rss - 1
(edit) @442 [442] 09/23/05 09:49:30 demian datefix for rss
(edit) @441 [441] 09/23/05 09:32:52 demian fixed wrong assigned for DA
(edit) @440 [440] 09/23/05 09:03:25 demian you now get redirected to correct page
(edit) @439 [439] 09/23/05 08:59:57 demian fixed rss version num
(edit) @438 [438] 09/23/05 07:01:44 demian Rewrote RssMgr? with XML_Serializer support
(edit) @431 [431] 09/21/05 11:02:13 demian removed unnecessary array indexes -3
(edit) @424 [424] 09/20/05 10:53:24 demian Suppress warning when user agent not set
(edit) @421 [421] 09/20/05 08:55:00 demian Chinese language update
(edit) @420 [420] 09/20/05 08:35:56 demian removed unnecessary array indexes -2
(edit) @419 [419] 09/20/05 08:30:30 demian removed unnecessary array indexes -1
(edit) @418 [418] 09/20/05 08:25:59 demian removed unnecessary array indexes
(edit) @415 [415] 09/20/05 06:57:26 demian removed unnecessary org type building in validate() - 1
(edit) @414 [414] 09/20/05 06:56:55 demian removed unnecessary org type building in validate()
(edit) @413 [413] 09/20/05 06:51:52 demian removed unnecessary arg
(edit) @412 [412] 09/20/05 06:03:55 demian updated pear generation pkg
(edit) @410 [410] 09/20/05 05:49:54 demian placeholder needed for pear build
(edit) @401 [401] 09/19/05 03:27:32 demian removed unnecessary bugfix stuff
(edit) @399 [399] 09/19/05 03:13:03 demian p3p mispelling fix
(edit) @397 [397] 09/19/05 03:03:58 demian fixed inline edit displayed in preview window
(edit) @387 [387] 09/17/05 03:44:21 demian repaired missing pear libs
(edit) @385 [385] 09/16/05 14:34:40 demian abandoned attempt to add article hits
(edit) @384 [384] 09/16/05 09:28:15 demian fixed infinte Flexy loop prob and PEAR update
(edit) @383 [383] 09/16/05 02:35:20 demian corrected rss version
(edit) @378 [378] 09/15/05 08:59:55 demian attempted fix of date prob
(edit) @377 [377] 09/15/05 08:37:53 demian Html title element value is now correctly drawn from the current article …
(edit) @376 [376] 09/15/05 07:45:44 demian email formatting improvement
(edit) @374 [374] 09/14/05 12:48:44 demian updated pear registry
(edit) @370 [370] 09/14/05 11:40:10 demian Unit test runner added
(edit) @369 [369] 09/14/05 11:31:44 demian upped to version 0.4.7
(edit) @367 [367] 09/14/05 09:46:19 demian replaced png with gif for correct transparency in msie
(edit) @366 [366] 09/14/05 09:40:39 demian Fixed missing bug icon in msie
(edit) @365 [365] 09/14/05 09:31:54 demian extended session stuff for mysql only
(edit) @364 [364] 09/14/05 09:23:39 demian block cleanup
(edit) @363 [363] 09/14/05 09:02:02 demian added usage note for multi-level menu css
(edit) @362 [362] 09/14/05 08:53:34 demian nav list html fix
(edit) @358 [358] 09/14/05 08:38:46 demian fixed sequences bug
(edit) @351 [351] 09/14/05 08:20:00 demian fixed extra )
(edit) @350 [350] 09/14/05 08:19:12 demian removed cart imgs
(edit) @349 [349] 09/14/05 08:18:17 demian removed cart libs
(edit) @345 [345] 09/14/05 08:12:54 demian docblock for stripIniFileIllegalChars
(edit) @344 [344] 09/14/05 08:11:15 demian removed cart stuff
(edit) @338 [338] 09/14/05 07:48:33 demian better name validation in config
(edit) @335 [335] 09/14/05 04:53:53 demian reversed sorting for last login
(edit) @334 [334] 09/14/05 04:48:46 demian added default org for userimport
(edit) @333 [333] 09/14/05 02:06:56 demian update
(edit) @332 [332] 09/13/05 17:30:27 demian fixed 2level css
(edit) @331 [331] 09/13/05 09:31:14 demian prefs fix
(edit) @330 [330] 09/13/05 09:24:42 demian fixed adding prefs
(edit) @329 [329] 09/13/05 09:12:48 demian removed NOT NULL constraint
(edit) @328 [328] 09/13/05 07:36:32 demian Fixed bug where prefs where not being correctly added for new registrants
(edit) @327 [327] 09/13/05 07:17:06 demian trial removing user_pref constraints -3
(edit) @326 [326] 09/13/05 05:17:25 demian trial removing user_pref constraints -2
(edit) @325 [325] 09/13/05 05:06:31 demian trial removing user_pref constraints -1
(edit) @324 [324] 09/13/05 04:16:47 demian trial removing user_pref constraints
(edit) @323 [323] 09/13/05 04:10:23 demian session gb collection query cleanup
(edit) @321 [321] 09/12/05 11:47:28 demian export module listing fixup
(edit) @319 [319] 09/12/05 08:04:32 demian Added RSS aggregator block
(edit) @318 [318] 09/12/05 07:17:42 demian cleaned up rssMgr - 3
(edit) @317 [317] 09/12/05 07:14:19 demian cleaned up rssMgr - 2
(edit) @316 [316] 09/12/05 07:11:16 demian cleaned up rssMgr - 1
(edit) @315 [315] 09/12/05 07:04:24 demian cleaned up rssMgr
Note: See TracRevisionLog for help on using the revision log.